sensor_id;sensor_type;location;lat;lon;timestamp;temperature;humidity
9125;DHT22;4597;48.730;9.114;2023-04-15T00:01:26;6.10;99.90
9125;DHT22;4597;48.730;9.114;2023-04-15T00:03:53;6.10;99.90
9125;DHT22;4597;48.730;9.114;2023-04-15T00:06:22;6.00;99.90
9125;DHT22;4597;48.730;9.114;2023-04-15T00:08:48;6.00;99.90
9125;DHT22;4597;48.730;9.114;2023-04-15T00:11:15;5.80;99.90
9125;DHT22;4597;48.730;9.114;2023-04-15T00:13:41;5.80;99.90
9125;DHT22;4597;48.730;9.114;2023-04-15T00:16:07;5.80;99.90
9125;DHT22;4597;48.730;9.114;2023-04-15T00:18:34;5.80;99.90
9125;DHT22;4597;48.730;9.114;2023-04-15T00:20:59;5.90;99.90
9125;DHT22;4597;48.730;9.114;2023-04-15T00:23:25;5.90;99.90
9125;DHT22;4597;48.730;9.114;2023-04-15T00:25:51;5.90;99.90
9125;DHT22;4597;48.730;9.114;2023-04-15T00:28:16;5.90;99.90
9125;DHT22;4597;48.730;9.114;2023-04-15T00:30:42;5.90;99.90
9125;DHT22;4597;48.730;9.114;2023-04-15T00:33:08;5.80;99.90
9125;DHT22;4597;48.730;9.114;2023-04-15T00:35:34;5.80;99.90
9125;DHT22;4597;48.730;9.114;2023-04-15T00:38:02;5.80;99.90
9125;DHT22;4597;48.730;9.114;2023-04-15T00:40:27;5.80;99.90
9125;DHT22;4597;48.730;9.114;2023-04-15T00:42:53;5.80;99.90
9125;DHT22;4597;48.730;9.114;2023-04-15T00:45:18;5.70;99.90
9125;DHT22;4597;48.730;9.114;2023-04-15T00:47:44;5.70;99.90
9125;DHT22;4597;48.730;9.114;2023-04-15T00:50:10;5.60;99.90
9125;DHT22;4597;48.730;9.114;2023-04-15T00:52:37;5.50;99.90
9125;DHT22;4597;48.730;9.114;2023-04-15T00:55:04;5.50;99.90
9125;DHT22;4597;48.730;9.114;2023-04-15T00:57:30;5.40;99.90
9125;DHT22;4597;48.730;9.114;2023-04-15T00:59:56;5.40;99.90
9125;DHT22;4597;48.730;9.114;2023-04-15T01:02:22;5.50;99.90
9125;DHT22;4597;48.730;9.114;2023-04-15T01:04:48;5.40;99.90
9125;DHT22;4597;48.730;9.114;2023-04-15T01:07:14;5.30;99.90
9125;DHT22;4597;48.730;9.114;2023-04-15T01:09:40;5.20;99.90
9125;DHT22;4597;48.730;9.114;2023-04-15T01:12:06;5.20;99.90
9125;DHT22;4597;48.730;9.114;2023-04-15T01:14:34;5.20;99.90
9125;DHT22;4597;48.730;9.114;2023-04-15T01:17:00;5.20;99.90
9125;DHT22;4597;48.730;9.114;2023-04-15T01:19:26;5.10;99.90
9125;DHT22;4597;48.730;9.114;2023-04-15T01:21:52;5.10;99.90
9125;DHT22;4597;48.730;9.114;2023-04-15T01:24:18;5.10;99.90
9125;DHT22;4597;48.730;9.114;2023-04-15T01:26:44;5.10;99.90
9125;DHT22;4597;48.730;9.114;2023-04-15T01:29:10;5.10;99.90
9125;DHT22;4597;48.730;9.114;2023-04-15T01:31:36;5.10;99.90
9125;DHT22;4597;48.730;9.114;2023-04-15T01:34:02;5.10;99.90
9125;DHT22;4597;48.730;9.114;2023-04-15T01:36:27;5.00;99.90
9125;DHT22;4597;48.730;9.114;2023-04-15T01:38:53;5.00;99.90
9125;DHT22;4597;48.730;9.114;2023-04-15T01:41:26;4.90;99.90
9125;DHT22;4597;48.730;9.114;2023-04-15T01:43:52;5.00;99.90
9125;DHT22;4597;48.730;9.114;2023-04-15T01:46:18;4.90;99.90
9125;DHT22;4597;48.730;9.114;2023-04-15T01:48:44;4.90;99.90
9125;DHT22;4597;48.730;9.114;2023-04-15T01:51:10;4.90;99.90
9125;DHT22;4597;48.730;9.114;2023-04-15T01:53:35;4.90;99.90
9125;DHT22;4597;48.730;9.114;2023-04-15T01:56:01;4.90;99.90
9125;DHT22;4597;48.730;9.114;2023-04-15T01:58:27;4.80;99.90
9125;DHT22;4597;48.730;9.114;2023-04-15T02:00:52;4.80;99.90
9125;DHT22;4597;48.730;9.114;2023-04-15T02:03:18;4.70;99.90
9125;DHT22;4597;48.730;9.114;2023-04-15T02:05:43;4.70;99.90
9125;DHT22;4597;48.730;9.114;2023-04-15T02:08:09;4.70;99.90
9125;DHT22;4597;48.730;9.114;2023-04-15T02:10:35;4.70;99.90
9125;DHT22;4597;48.730;9.114;2023-04-15T02:13:00;4.60;99.90
9125;DHT22;4597;48.730;9.114;2023-04-15T02:15:26;4.60;99.90
9125;DHT22;4597;48.730;9.114;2023-04-15T02:17:51;4.60;99.90
9125;DHT22;4597;48.730;9.114;2023-04-15T02:20:19;4.60;99.90
9125;DHT22;4597;48.730;9.114;2023-04-15T02:22:45;4.60;99.90
9125;DHT22;4597;48.730;9.114;2023-04-15T02:25:12;4.60;99.90
9125;DHT22;4597;48.730;9.114;2023-04-15T02:27:38;4.50;99.90
9125;DHT22;4597;48.730;9.114;2023-04-15T02:30:04;4.50;99.90
9125;DHT22;4597;48.730;9.114;2023-04-15T02:32:30;4.40;99.90
9125;DHT22;4597;48.730;9.114;2023-04-15T02:34:55;4.30;99.90
9125;DHT22;4597;48.730;9.114;2023-04-15T02:37:21;4.30;99.90
9125;DHT22;4597;48.730;9.114;2023-04-15T02:39:47;4.20;99.90
9125;DHT22;4597;48.730;9.114;2023-04-15T02:42:12;4.30;99.90
9125;DHT22;4597;48.730;9.114;2023-04-15T02:44:38;4.30;99.90
9125;DHT22;4597;48.730;9.114;2023-04-15T02:47:04;4.20;99.90
9125;DHT22;4597;48.730;9.114;2023-04-15T02:49:31;4.20;99.90
9125;DHT22;4597;48.730;9.114;2023-04-15T02:51:57;4.20;99.90
9125;DHT22;4597;48.730;9.114;2023-04-15T02:54:25;4.20;99.90
9125;DHT22;4597;48.730;9.114;2023-04-15T02:56:53;4.20;99.90
9125;DHT22;4597;48.730;9.114;2023-04-15T02:59:20;4.10;99.90
9125;DHT22;4597;48.730;9.114;2023-04-15T03:01:46;4.10;99.90
9125;DHT22;4597;48.730;9.114;2023-04-15T03:04:11;4.10;99.90
9125;DHT22;4597;48.730;9.114;2023-04-15T03:06:38;4.10;99.90
9125;DHT22;4597;48.730;9.114;2023-04-15T03:09:03;4.10;99.90
9125;DHT22;4597;48.730;9.114;2023-04-15T03:11:28;4.10;99.90
9125;DHT22;4597;48.730;9.114;2023-04-15T03:13:54;4.10;99.90
9125;DHT22;4597;48.730;9.114;2023-04-15T03:16:20;4.10;99.90
9125;DHT22;4597;48.730;9.114;2023-04-15T03:18:45;4.10;99.90
9125;DHT22;4597;48.730;9.114;2023-04-15T03:21:11;4.10;99.90
9125;DHT22;4597;48.730;9.114;2023-04-15T03:23:36;4.00;99.90
9125;DHT22;4597;48.730;9.114;2023-04-15T03:26:03;4.00;99.90
9125;DHT22;4597;48.730;9.114;2023-04-15T03:28:29;3.90;99.90
9125;DHT22;4597;48.730;9.114;2023-04-15T03:30:54;3.90;99.90
9125;DHT22;4597;48.730;9.114;2023-04-15T03:33:20;3.90;99.90
9125;DHT22;4597;48.730;9.114;2023-04-15T03:35:45;3.90;99.90
9125;DHT22;4597;48.730;9.114;2023-04-15T03:38:11;3.90;99.90
9125;DHT22;4597;48.730;9.114;2023-04-15T03:40:39;3.80;99.90
9125;DHT22;4597;48.730;9.114;2023-04-15T03:43:04;3.80;99.90
9125;DHT22;4597;48.730;9.114;2023-04-15T03:45:30;3.80;99.90
9125;DHT22;4597;48.730;9.114;2023-04-15T03:47:56;3.80;99.90
9125;DHT22;4597;48.730;9.114;2023-04-15T03:50:21;3.80;99.90
9125;DHT22;4597;48.730;9.114;2023-04-15T03:52:47;3.80;99.90
9125;DHT22;4597;48.730;9.114;2023-04-15T03:55:12;3.70;99.90
9125;DHT22;4597;48.730;9.114;2023-04-15T03:57:38;3.70;99.90
9125;DHT22;4597;48.730;9.114;2023-04-15T04:00:07;3.60;99.90
9125;DHT22;4597;48.730;9.114;2023-04-15T04:02:36;3.70;99.90
9125;DHT22;4597;48.730;9.114;2023-04-15T04:05:02;3.60;99.90
9125;DHT22;4597;48.730;9.114;2023-04-15T04:07:28;3.60;99.90
9125;DHT22;4597;48.730;9.114;2023-04-15T04:09:55;3.70;99.90
9125;DHT22;4597;48.730;9.114;2023-04-15T04:12:20;3.60;99.90
9125;DHT22;4597;48.730;9.114;2023-04-15T04:14:46;3.60;99.90
9125;DHT22;4597;48.730;9.114;2023-04-15T04:17:12;3.50;99.90
9125;DHT22;4597;48.730;9.114;2023-04-15T04:19:38;3.50;99.90
9125;DHT22;4597;48.730;9.114;2023-04-15T04:22:03;3.40;99.90
9125;DHT22;4597;48.730;9.114;2023-04-15T04:24:28;3.50;99.90
9125;DHT22;4597;48.730;9.114;2023-04-15T04:26:54;3.50;99.90
9125;DHT22;4597;48.730;9.114;2023-04-15T04:29:21;3.50;99.90
9125;DHT22;4597;48.730;9.114;2023-04-15T04:31:46;3.40;99.90
9125;DHT22;4597;48.730;9.114;2023-04-15T04:34:13;3.30;99.90
9125;DHT22;4597;48.730;9.114;2023-04-15T04:36:38;3.40;99.90
9125;DHT22;4597;48.730;9.114;2023-04-15T04:39:04;3.40;99.90
9125;DHT22;4597;48.730;9.114;2023-04-15T04:41:29;3.40;99.90
9125;DHT22;4597;48.730;9.114;2023-04-15T04:43:55;3.30;99.90
9125;DHT22;4597;48.730;9.114;2023-04-15T04:46:20;3.40;99.90
9125;DHT22;4597;48.730;9.114;2023-04-15T04:48:46;3.40;99.90
9125;DHT22;4597;48.730;9.114;2023-04-15T04:51:11;3.30;99.90
9125;DHT22;4597;48.730;9.114;2023-04-15T04:53:37;3.30;99.90
9125;DHT22;4597;48.730;9.114;2023-04-15T04:56:03;3.30;99.90
9125;DHT22;4597;48.730;9.114;2023-04-15T04:58:28;3.30;99.90
9125;DHT22;4597;48.730;9.114;2023-04-15T05:00:54;3.30;99.90
9125;DHT22;4597;48.730;9.114;2023-04-15T05:03:20;3.40;99.90
9125;DHT22;4597;48.730;9.114;2023-04-15T05:05:46;3.40;99.90
9125;DHT22;4597;48.730;9.114;2023-04-15T05:08:13;3.30;99.90
9125;DHT22;4597;48.730;9.114;2023-04-15T05:10:39;3.20;99.90
9125;DHT22;4597;48.730;9.114;2023-04-15T05:13:04;3.30;99.90
9125;DHT22;4597;48.730;9.114;2023-04-15T05:15:30;3.20;99.90
9125;DHT22;4597;48.730;9.114;2023-04-15T05:17:56;3.30;99.90
9125;DHT22;4597;48.730;9.114;2023-04-15T05:20:22;3.30;99.90
9125;DHT22;4597;48.730;9.114;2023-04-15T05:22:47;3.30;99.90
9125;DHT22;4597;48.730;9.114;2023-04-15T05:25:13;3.30;99.90
9125;DHT22;4597;48.730;9.114;2023-04-15T05:27:38;3.20;99.90
9125;DHT22;4597;48.730;9.114;2023-04-15T05:30:04;3.20;99.90
9125;DHT22;4597;48.730;9.114;2023-04-15T05:32:30;3.20;99.90
9125;DHT22;4597;48.730;9.114;2023-04-15T05:34:55;3.30;99.90
9125;DHT22;4597;48.730;9.114;2023-04-15T05:37:21;3.30;99.90
9125;DHT22;4597;48.730;9.114;2023-04-15T05:39:46;3.30;99.90
9125;DHT22;4597;48.730;9.114;2023-04-15T05:42:12;3.40;99.90
9125;DHT22;4597;48.730;9.114;2023-04-15T05:44:38;3.40;99.90
9125;DHT22;4597;48.730;9.114;2023-04-15T05:47:03;3.40;99.90
9125;DHT22;4597;48.730;9.114;2023-04-15T05:49:30;3.40;99.90
9125;DHT22;4597;48.730;9.114;2023-04-15T05:51:56;3.40;99.90
9125;DHT22;4597;48.730;9.114;2023-04-15T05:54:21;3.40;99.90
9125;DHT22;4597;48.730;9.114;2023-04-15T05:56:47;3.40;99.90
9125;DHT22;4597;48.730;9.114;2023-04-15T05:59:13;3.40;99.90
9125;DHT22;4597;48.730;9.114;2023-04-15T06:01:38;3.40;99.90
9125;DHT22;4597;48.730;9.114;2023-04-15T06:04:04;3.40;99.90
9125;DHT22;4597;48.730;9.114;2023-04-15T06:06:30;3.40;99.90
9125;DHT22;4597;48.730;9.114;2023-04-15T06:08:56;3.40;99.90
9125;DHT22;4597;48.730;9.114;2023-04-15T06:11:23;3.50;99.90
9125;DHT22;4597;48.730;9.114;2023-04-15T06:13:49;3.50;99.90
9125;DHT22;4597;48.730;9.114;2023-04-15T06:16:14;3.50;99.90
9125;DHT22;4597;48.730;9.114;2023-04-15T06:18:40;3.50;99.90
9125;DHT22;4597;48.730;9.114;2023-04-15T06:21:05;3.60;99.90
9125;DHT22;4597;48.730;9.114;2023-04-15T06:23:33;3.70;99.90
9125;DHT22;4597;48.730;9.114;2023-04-15T06:25:59;3.70;99.90
9125;DHT22;4597;48.730;9.114;2023-04-15T06:28:25;3.70;99.90
9125;DHT22;4597;48.730;9.114;2023-04-15T06:30:52;3.80;99.90
9125;DHT22;4597;48.730;9.114;2023-04-15T06:33:17;3.80;99.90
9125;DHT22;4597;48.730;9.114;2023-04-15T06:35:43;3.90;99.90
9125;DHT22;4597;48.730;9.114;2023-04-15T06:38:08;3.90;99.90
9125;DHT22;4597;48.730;9.114;2023-04-15T06:40:34;4.00;99.90
9125;DHT22;4597;48.730;9.114;2023-04-15T06:42:59;4.10;99.90
9125;DHT22;4597;48.730;9.114;2023-04-15T06:45:25;4.20;99.90
9125;DHT22;4597;48.730;9.114;2023-04-15T06:47:50;4.20;99.90
9125;DHT22;4597;48.730;9.114;2023-04-15T06:50:16;4.30;99.90
9125;DHT22;4597;48.730;9.114;2023-04-15T06:52:42;4.30;99.90
9125;DHT22;4597;48.730;9.114;2023-04-15T06:55:07;4.30;99.90
9125;DHT22;4597;48.730;9.114;2023-04-15T06:57:33;4.30;99.90
9125;DHT22;4597;48.730;9.114;2023-04-15T06:59:58;4.40;99.90
9125;DHT22;4597;48.730;9.114;2023-04-15T07:02:25;4.50;99.90
9125;DHT22;4597;48.730;9.114;2023-04-15T07:04:50;4.50;99.90
9125;DHT22;4597;48.730;9.114;2023-04-15T07:07:16;4.60;99.90
9125;DHT22;4597;48.730;9.114;2023-04-15T07:09:41;4.70;99.90
9125;DHT22;4597;48.730;9.114;2023-04-15T07:12:07;4.80;99.90
9125;DHT22;4597;48.730;9.114;2023-04-15T07:14:32;4.90;99.90
9125;DHT22;4597;48.730;9.114;2023-04-15T07:16:58;4.90;99.90
9125;DHT22;4597;48.730;9.114;2023-04-15T07:19:23;4.90;99.90
9125;DHT22;4597;48.730;9.114;2023-04-15T07:21:49;5.00;99.90
9125;DHT22;4597;48.730;9.114;2023-04-15T07:24:15;5.10;99.90
9125;DHT22;4597;48.730;9.114;2023-04-15T07:26:43;5.20;99.90
9125;DHT22;4597;48.730;9.114;2023-04-15T07:29:08;5.40;99.90
9125;DHT22;4597;48.730;9.114;2023-04-15T07:31:34;5.60;99.90
9125;DHT22;4597;48.730;9.114;2023-04-15T07:34:01;5.80;99.90
9125;DHT22;4597;48.730;9.114;2023-04-15T07:36:27;6.00;99.90
9125;DHT22;4597;48.730;9.114;2023-04-15T07:38:54;6.10;99.90
9125;DHT22;4597;48.730;9.114;2023-04-15T07:41:20;6.20;99.90
9125;DHT22;4597;48.730;9.114;2023-04-15T07:43:46;6.20;99.90
9125;DHT22;4597;48.730;9.114;2023-04-15T07:46:12;6.30;99.90
9125;DHT22;4597;48.730;9.114;2023-04-15T07:48:38;6.50;99.90
9125;DHT22;4597;48.730;9.114;2023-04-15T07:51:04;6.60;99.90
9125;DHT22;4597;48.730;9.114;2023-04-15T07:53:29;6.80;99.90
9125;DHT22;4597;48.730;9.114;2023-04-15T07:55:55;6.90;99.90
9125;DHT22;4597;48.730;9.114;2023-04-15T07:58:21;7.00;99.90
9125;DHT22;4597;48.730;9.114;2023-04-15T08:00:47;7.10;99.90
9125;DHT22;4597;48.730;9.114;2023-04-15T08:03:13;7.20;99.90
9125;DHT22;4597;48.730;9.114;2023-04-15T08:05:39;7.40;99.90
9125;DHT22;4597;48.730;9.114;2023-04-15T08:08:05;7.50;99.90
9125;DHT22;4597;48.730;9.114;2023-04-15T08:10:31;7.70;99.90
9125;DHT22;4597;48.730;9.114;2023-04-15T08:12:57;7.80;99.90
9125;DHT22;4597;48.730;9.114;2023-04-15T08:15:22;7.80;99.90
9125;DHT22;4597;48.730;9.114;2023-04-15T08:17:48;7.90;99.90
9125;DHT22;4597;48.730;9.114;2023-04-15T08:20:14;8.20;99.90
9125;DHT22;4597;48.730;9.114;2023-04-15T08:22:39;8.20;99.90
9125;DHT22;4597;48.730;9.114;2023-04-15T08:25:06;8.30;99.90
9125;DHT22;4597;48.730;9.114;2023-04-15T08:27:31;8.40;99.90
9125;DHT22;4597;48.730;9.114;2023-04-15T08:29:57;8.50;99.90
9125;DHT22;4597;48.730;9.114;2023-04-15T08:32:22;8.70;99.90
9125;DHT22;4597;48.730;9.114;2023-04-15T08:34:48;8.80;99.90
9125;DHT22;4597;48.730;9.114;2023-04-15T08:37:13;9.00;99.90
9125;DHT22;4597;48.730;9.114;2023-04-15T08:39:39;9.30;99.90
9125;DHT22;4597;48.730;9.114;2023-04-15T08:42:11;9.30;99.90
9125;DHT22;4597;48.730;9.114;2023-04-15T08:44:38;9.30;99.90
9125;DHT22;4597;48.730;9.114;2023-04-15T08:47:07;9.40;99.90
9125;DHT22;4597;48.730;9.114;2023-04-15T08:49:35;9.50;99.90
9125;DHT22;4597;48.730;9.114;2023-04-15T08:52:03;9.50;99.90
9125;DHT22;4597;48.730;9.114;2023-04-15T08:54:29;9.70;99.90
9125;DHT22;4597;48.730;9.114;2023-04-15T08:56:56;9.80;99.90
9125;DHT22;4597;48.730;9.114;2023-04-15T08:59:22;9.90;99.90
9125;DHT22;4597;48.730;9.114;2023-04-15T09:01:51;10.00;99.90
9125;DHT22;4597;48.730;9.114;2023-04-15T09:04:17;10.20;99.90
9125;DHT22;4597;48.730;9.114;2023-04-15T09:06:43;10.30;99.90
9125;DHT22;4597;48.730;9.114;2023-04-15T09:09:09;10.50;99.90
9125;DHT22;4597;48.730;9.114;2023-04-15T09:11:34;10.70;99.90
9125;DHT22;4597;48.730;9.114;2023-04-15T09:14:00;10.70;99.90
9125;DHT22;4597;48.730;9.114;2023-04-15T09:16:26;10.90;99.90
9125;DHT22;4597;48.730;9.114;2023-04-15T09:18:52;10.90;99.90
9125;DHT22;4597;48.730;9.114;2023-04-15T09:21:18;10.90;99.90
9125;DHT22;4597;48.730;9.114;2023-04-15T09:23:57;11.00;99.90
9125;DHT22;4597;48.730;9.114;2023-04-15T09:26:33;11.10;99.90
9125;DHT22;4597;48.730;9.114;2023-04-15T09:29:03;11.10;99.90
9125;DHT22;4597;48.730;9.114;2023-04-15T09:31:30;11.20;99.90
9125;DHT22;4597;48.730;9.114;2023-04-15T09:33:55;11.40;99.90
9125;DHT22;4597;48.730;9.114;2023-04-15T09:36:21;11.50;99.90
9125;DHT22;4597;48.730;9.114;2023-04-15T09:38:57;11.60;99.90
9125;DHT22;4597;48.730;9.114;2023-04-15T09:41:24;11.80;99.90
9125;DHT22;4597;48.730;9.114;2023-04-15T09:43:50;12.10;99.90
9125;DHT22;4597;48.730;9.114;2023-04-15T09:46:16;12.20;99.90
9125;DHT22;4597;48.730;9.114;2023-04-15T09:48:41;12.30;99.90
9125;DHT22;4597;48.730;9.114;2023-04-15T09:51:07;12.40;99.90
9125;DHT22;4597;48.730;9.114;2023-04-15T09:53:34;12.40;96.90
9125;DHT22;4597;48.730;9.114;2023-04-15T09:56:01;12.50;89.50
9125;DHT22;4597;48.730;9.114;2023-04-15T09:58:29;12.50;80.80
9125;DHT22;4597;48.730;9.114;2023-04-15T10:00:56;12.50;76.90
9125;DHT22;4597;48.730;9.114;2023-04-15T10:05:51;12.50;71.10
9125;DHT22;4597;48.730;9.114;2023-04-15T10:08:25;12.70;72.60
9125;DHT22;4597;48.730;9.114;2023-04-15T10:10:52;12.90;71.30
9125;DHT22;4597;48.730;9.114;2023-04-15T10:13:19;13.10;71.40
9125;DHT22;4597;48.730;9.114;2023-04-15T10:15:55;13.20;68.90
9125;DHT22;4597;48.730;9.114;2023-04-15T10:18:24;13.10;67.40
9125;DHT22;4597;48.730;9.114;2023-04-15T10:20:50;13.20;67.90
9125;DHT22;4597;48.730;9.114;2023-04-15T10:23:17;13.20;66.90
9125;DHT22;4597;48.730;9.114;2023-04-15T10:25:44;13.20;67.10
9125;DHT22;4597;48.730;9.114;2023-04-15T10:28:10;13.10;67.70
9125;DHT22;4597;48.730;9.114;2023-04-15T10:30:37;13.20;69.10
9125;DHT22;4597;48.730;9.114;2023-04-15T10:33:03;13.30;70.90
9125;DHT22;4597;48.730;9.114;2023-04-15T10:35:31;13.20;69.40
9125;DHT22;4597;48.730;9.114;2023-04-15T10:37:57;13.30;71.40
9125;DHT22;4597;48.730;9.114;2023-04-15T10:40:30;13.30;72.00
9125;DHT22;4597;48.730;9.114;2023-04-15T10:43:00;13.40;73.00
9125;DHT22;4597;48.730;9.114;2023-04-15T10:45:33;13.40;70.40
9125;DHT22;4597;48.730;9.114;2023-04-15T10:48:02;13.50;74.40
9125;DHT22;4597;48.730;9.114;2023-04-15T10:50:30;13.70;75.40
9125;DHT22;4597;48.730;9.114;2023-04-15T10:52:57;13.90;71.90
9125;DHT22;4597;48.730;9.114;2023-04-15T10:55:25;14.00;70.80
9125;DHT22;4597;48.730;9.114;2023-04-15T10:57:52;13.80;70.50
9125;DHT22;4597;48.730;9.114;2023-04-15T11:00:19;13.80;71.00
9125;DHT22;4597;48.730;9.114;2023-04-15T11:05:49;13.90;69.80
9125;DHT22;4597;48.730;9.114;2023-04-15T11:08:15;14.00;69.50
9125;DHT22;4597;48.730;9.114;2023-04-15T11:18:16;14.00;71.60
9125;DHT22;4597;48.730;9.114;2023-04-15T11:20:46;14.00;67.00
9125;DHT22;4597;48.730;9.114;2023-04-15T11:23:13;14.00;67.60
9125;DHT22;4597;48.730;9.114;2023-04-15T11:25:39;14.00;67.70
9125;DHT22;4597;48.730;9.114;2023-04-15T11:28:05;14.00;67.80
9125;DHT22;4597;48.730;9.114;2023-04-15T11:30:33;14.10;68.40
9125;DHT22;4597;48.730;9.114;2023-04-15T11:33:04;14.00;68.00
9125;DHT22;4597;48.730;9.114;2023-04-15T11:35:30;14.00;68.80
9125;DHT22;4597;48.730;9.114;2023-04-15T11:37:56;13.90;69.60
9125;DHT22;4597;48.730;9.114;2023-04-15T11:40:28;14.10;68.20
9125;DHT22;4597;48.730;9.114;2023-04-15T11:43:14;14.20;61.20
9125;DHT22;4597;48.730;9.114;2023-04-15T11:45:50;14.30;65.20
9125;DHT22;4597;48.730;9.114;2023-04-15T11:48:17;14.40;65.80
9125;DHT22;4597;48.730;9.114;2023-04-15T11:50:43;14.60;64.30
9125;DHT22;4597;48.730;9.114;2023-04-15T11:53:11;14.80;60.70
9125;DHT22;4597;48.730;9.114;2023-04-15T11:58:14;14.90;60.30
9125;DHT22;4597;48.730;9.114;2023-04-15T12:01:00;14.90;56.30
9125;DHT22;4597;48.730;9.114;2023-04-15T12:06:21;14.60;55.80
9125;DHT22;4597;48.730;9.114;2023-04-15T12:13:55;14.50;65.00
9125;DHT22;4597;48.730;9.114;2023-04-15T12:16:21;14.50;67.10
9125;DHT22;4597;48.730;9.114;2023-04-15T12:18:55;14.30;68.60
9125;DHT22;4597;48.730;9.114;2023-04-15T12:21:22;14.40;70.10
9125;DHT22;4597;48.730;9.114;2023-04-15T12:26:15;14.30;68.20
9125;DHT22;4597;48.730;9.114;2023-04-15T12:28:41;14.00;68.00
9125;DHT22;4597;48.730;9.114;2023-04-15T12:31:08;13.80;65.50
9125;DHT22;4597;48.730;9.114;2023-04-15T12:33:34;13.80;67.20
9125;DHT22;4597;48.730;9.114;2023-04-15T12:35:59;13.80;68.20
9125;DHT22;4597;48.730;9.114;2023-04-15T12:38:25;13.90;69.10
9125;DHT22;4597;48.730;9.114;2023-04-15T12:40:51;13.90;66.90
9125;DHT22;4597;48.730;9.114;2023-04-15T12:43:16;13.90;69.40
9125;DHT22;4597;48.730;9.114;2023-04-15T12:45:42;14.00;68.90
9125;DHT22;4597;48.730;9.114;2023-04-15T12:48:07;14.00;67.20
9125;DHT22;4597;48.730;9.114;2023-04-15T12:50:34;13.90;65.40
9125;DHT22;4597;48.730;9.114;2023-04-15T12:53:00;13.70;63.00
9125;DHT22;4597;48.730;9.114;2023-04-15T12:55:25;13.60;64.70
9125;DHT22;4597;48.730;9.114;2023-04-15T12:57:51;13.70;62.10
9125;DHT22;4597;48.730;9.114;2023-04-15T13:00:17;13.60;61.80
9125;DHT22;4597;48.730;9.114;2023-04-15T13:02:43;13.60;61.80
9125;DHT22;4597;48.730;9.114;2023-04-15T13:05:08;13.60;59.40
9125;DHT22;4597;48.730;9.114;2023-04-15T13:07:34;13.60;60.60
9125;DHT22;4597;48.730;9.114;2023-04-15T13:10:00;13.60;60.90
9125;DHT22;4597;48.730;9.114;2023-04-15T13:12:26;13.40;57.10
9125;DHT22;4597;48.730;9.114;2023-04-15T13:14:51;13.40;56.80
9125;DHT22;4597;48.730;9.114;2023-04-15T13:17:17;13.30;56.80
9125;DHT22;4597;48.730;9.114;2023-04-15T13:19:45;13.40;56.60
9125;DHT22;4597;48.730;9.114;2023-04-15T13:22:10;13.30;55.50
9125;DHT22;4597;48.730;9.114;2023-04-15T13:24:36;13.10;55.00
9125;DHT22;4597;48.730;9.114;2023-04-15T13:27:03;13.20;55.00
9125;DHT22;4597;48.730;9.114;2023-04-15T13:29:29;13.20;55.20
9125;DHT22;4597;48.730;9.114;2023-04-15T13:31:55;13.10;55.40
9125;DHT22;4597;48.730;9.114;2023-04-15T13:34:20;13.20;54.80
9125;DHT22;4597;48.730;9.114;2023-04-15T13:36:46;13.20;53.90
9125;DHT22;4597;48.730;9.114;2023-04-15T13:39:12;13.20;54.00
9125;DHT22;4597;48.730;9.114;2023-04-15T13:41:37;13.20;50.10
9125;DHT22;4597;48.730;9.114;2023-04-15T13:44:03;13.20;47.30
9125;DHT22;4597;48.730;9.114;2023-04-15T13:46:29;13.20;44.30
9125;DHT22;4597;48.730;9.114;2023-04-15T13:48:55;13.00;44.50
9125;DHT22;4597;48.730;9.114;2023-04-15T13:51:21;13.00;44.50
9125;DHT22;4597;48.730;9.114;2023-04-15T13:53:46;12.90;44.70
9125;DHT22;4597;48.730;9.114;2023-04-15T13:56:12;12.70;45.30
9125;DHT22;4597;48.730;9.114;2023-04-15T13:58:38;12.80;46.10
9125;DHT22;4597;48.730;9.114;2023-04-15T14:01:04;12.70;46.20
9125;DHT22;4597;48.730;9.114;2023-04-15T14:03:30;12.80;46.20
9125;DHT22;4597;48.730;9.114;2023-04-15T14:05:56;12.60;47.20
9125;DHT22;4597;48.730;9.114;2023-04-15T14:08:23;12.50;47.90
9125;DHT22;4597;48.730;9.114;2023-04-15T14:10:49;12.50;48.10
9125;DHT22;4597;48.730;9.114;2023-04-15T14:13:14;12.50;49.20
9125;DHT22;4597;48.730;9.114;2023-04-15T14:15:40;12.30;49.40
9125;DHT22;4597;48.730;9.114;2023-04-15T14:18:06;12.30;50.70
9125;DHT22;4597;48.730;9.114;2023-04-15T14:20:32;12.20;50.60
9125;DHT22;4597;48.730;9.114;2023-04-15T14:22:57;12.30;51.30
9125;DHT22;4597;48.730;9.114;2023-04-15T14:25:23;12.20;52.00
9125;DHT22;4597;48.730;9.114;2023-04-15T14:27:49;12.30;51.90
9125;DHT22;4597;48.730;9.114;2023-04-15T14:30:14;12.20;52.40
9125;DHT22;4597;48.730;9.114;2023-04-15T14:32:40;12.10;53.10
9125;DHT22;4597;48.730;9.114;2023-04-15T14:35:06;12.20;53.60
9125;DHT22;4597;48.730;9.114;2023-04-15T14:37:31;12.10;55.00
9125;DHT22;4597;48.730;9.114;2023-04-15T14:39:57;11.90;55.10
9125;DHT22;4597;48.730;9.114;2023-04-15T14:42:24;11.80;55.40
9125;DHT22;4597;48.730;9.114;2023-04-15T14:44:49;11.70;57.30
9125;DHT22;4597;48.730;9.114;2023-04-15T14:47:15;11.70;57.70
9125;DHT22;4597;48.730;9.114;2023-04-15T14:49:41;11.70;58.00
9125;DHT22;4597;48.730;9.114;2023-04-15T14:52:06;11.80;59.00
9125;DHT22;4597;48.730;9.114;2023-04-15T14:54:32;11.80;59.50
9125;DHT22;4597;48.730;9.114;2023-04-15T14:56:57;11.90;62.20
9125;DHT22;4597;48.730;9.114;2023-04-15T14:59:23;11.90;63.50
9125;DHT22;4597;48.730;9.114;2023-04-15T15:01:48;11.90;63.30
9125;DHT22;4597;48.730;9.114;2023-04-15T15:04:14;11.90;62.70
9125;DHT22;4597;48.730;9.114;2023-04-15T15:06:40;12.00;62.00
9125;DHT22;4597;48.730;9.114;2023-04-15T15:09:06;12.00;62.30
9125;DHT22;4597;48.730;9.114;2023-04-15T15:11:31;12.00;60.60
9125;DHT22;4597;48.730;9.114;2023-04-15T15:13:57;12.00;60.20
9125;DHT22;4597;48.730;9.114;2023-04-15T15:16:23;12.10;60.30
9125;DHT22;4597;48.730;9.114;2023-04-15T15:18:49;12.10;60.50
9125;DHT22;4597;48.730;9.114;2023-04-15T15:21:15;12.20;59.60
9125;DHT22;4597;48.730;9.114;2023-04-15T15:23:41;12.20;58.40
9125;DHT22;4597;48.730;9.114;2023-04-15T15:26:07;12.20;58.50
9125;DHT22;4597;48.730;9.114;2023-04-15T15:28:33;12.20;59.00
9125;DHT22;4597;48.730;9.114;2023-04-15T15:30:59;12.20;58.20
9125;DHT22;4597;48.730;9.114;2023-04-15T15:33:24;12.20;58.20
9125;DHT22;4597;48.730;9.114;2023-04-15T15:35:50;12.30;59.00
9125;DHT22;4597;48.730;9.114;2023-04-15T15:38:15;12.40;58.60
9125;DHT22;4597;48.730;9.114;2023-04-15T15:40:41;12.20;58.20
9125;DHT22;4597;48.730;9.114;2023-04-15T15:43:07;12.00;59.30
9125;DHT22;4597;48.730;9.114;2023-04-15T15:45:33;11.90;60.10
9125;DHT22;4597;48.730;9.114;2023-04-15T15:48:00;12.00;59.60
9125;DHT22;4597;48.730;9.114;2023-04-15T15:50:25;11.90;60.90
9125;DHT22;4597;48.730;9.114;2023-04-15T15:52:51;11.70;63.50
9125;DHT22;4597;48.730;9.114;2023-04-15T15:55:16;11.70;64.10
9125;DHT22;4597;48.730;9.114;2023-04-15T15:57:42;11.70;65.80
9125;DHT22;4597;48.730;9.114;2023-04-15T16:00:08;11.80;67.10
9125;DHT22;4597;48.730;9.114;2023-04-15T16:02:36;11.60;69.60
9125;DHT22;4597;48.730;9.114;2023-04-15T16:05:01;11.50;71.80
9125;DHT22;4597;48.730;9.114;2023-04-15T16:07:27;11.40;76.90
9125;DHT22;4597;48.730;9.114;2023-04-15T16:09:52;11.30;85.50
9125;DHT22;4597;48.730;9.114;2023-04-15T16:12:18;11.20;93.80
9125;DHT22;4597;48.730;9.114;2023-04-15T16:14:44;11.30;95.10
9125;DHT22;4597;48.730;9.114;2023-04-15T16:17:11;11.30;99.40
9125;DHT22;4597;48.730;9.114;2023-04-15T16:19:37;11.20;99.90
9125;DHT22;4597;48.730;9.114;2023-04-15T16:22:02;11.20;99.90
9125;DHT22;4597;48.730;9.114;2023-04-15T16:24:28;11.20;99.90
9125;DHT22;4597;48.730;9.114;2023-04-15T16:26:54;11.10;99.90
9125;DHT22;4597;48.730;9.114;2023-04-15T16:29:22;11.10;99.90